sensor_id;sensor_type;location;lat;lon;timestamp;P1;durP1;ratioP1;P2;durP2;ratioP2
68577;SDS011;61668;45.388;11.784;2023-03-01T00:01:30;20.10;;;7.80;;
68577;SDS011;61668;45.388;11.784;2023-03-01T00:03:56;19.70;;;7.20;;
68577;SDS011;61668;45.388;11.784;2023-03-01T00:06:23;21.00;;;7.40;;
68577;SDS011;61668;45.388;11.784;2023-03-01T00:08:49;19.40;;;7.00;;
68577;SDS011;61668;45.388;11.784;2023-03-01T00:11:24;19.50;;;7.20;;
68577;SDS011;61668;45.388;11.784;2023-03-01T00:13:56;17.30;;;6.70;;
68577;SDS011;61668;45.388;11.784;2023-03-01T00:16:29;20.30;;;7.90;;
68577;SDS011;61668;45.388;11.784;2023-03-01T00:18:58;24.10;;;9.90;;
68577;SDS011;61668;45.388;11.784;2023-03-01T00:21:25;22.00;;;9.00;;
68577;SDS011;61668;45.388;11.784;2023-03-01T00:23:51;22.20;;;9.60;;
68577;SDS011;61668;45.388;11.784;2023-03-01T00:26:18;23.10;;;9.50;;
68577;SDS011;61668;45.388;11.784;2023-03-01T00:28:45;21.20;;;8.70;;
68577;SDS011;61668;45.388;11.784;2023-03-01T00:31:14;19.70;;;8.40;;
68577;SDS011;61668;45.388;11.784;2023-03-01T00:33:41;20.80;;;8.60;;
68577;SDS011;61668;45.388;11.784;2023-03-01T00:36:09;20.50;;;8.00;;
68577;SDS011;61668;45.388;11.784;2023-03-01T00:38:40;21.00;;;7.60;;
68577;SDS011;61668;45.388;11.784;2023-03-01T00:41:10;20.70;;;8.00;;
68577;SDS011;61668;45.388;11.784;2023-03-01T00:43:37;19.30;;;6.90;;
68577;SDS011;61668;45.388;11.784;2023-03-01T00:46:09;17.10;;;6.70;;
68577;SDS011;61668;45.388;11.784;2023-03-01T00:48:39;20.10;;;6.20;;
68577;SDS011;61668;45.388;11.784;2023-03-01T00:53:37;18.20;;;5.80;;
68577;SDS011;61668;45.388;11.784;2023-03-01T00:56:05;17.60;;;6.20;;
68577;SDS011;61668;45.388;11.784;2023-03-01T00:58:32;17.50;;;6.00;;
68577;SDS011;61668;45.388;11.784;2023-03-01T01:00:58;17.80;;;6.60;;
68577;SDS011;61668;45.388;11.784;2023-03-01T01:03:24;21.30;;;7.40;;
68577;SDS011;61668;45.388;11.784;2023-03-01T01:05:53;23.50;;;9.10;;
68577;SDS011;61668;45.388;11.784;2023-03-01T01:08:20;20.60;;;8.00;;
68577;SDS011;61668;45.388;11.784;2023-03-01T01:10:46;21.00;;;7.90;;
68577;SDS011;61668;45.388;11.784;2023-03-01T01:13:13;19.30;;;7.70;;
68577;SDS011;61668;45.388;11.784;2023-03-01T01:15:38;21.00;;;8.60;;
68577;SDS011;61668;45.388;11.784;2023-03-01T01:18:05;23.50;;;8.90;;
68577;SDS011;61668;45.388;11.784;2023-03-01T01:20:32;17.00;;;7.40;;
68577;SDS011;61668;45.388;11.784;2023-03-01T01:22:58;19.40;;;7.90;;
68577;SDS011;61668;45.388;11.784;2023-03-01T01:25:23;23.20;;;7.00;;
68577;SDS011;61668;45.388;11.784;2023-03-01T01:27:52;21.30;;;6.60;;
68577;SDS011;61668;45.388;11.784;2023-03-01T01:30:17;19.60;;;7.70;;
68577;SDS011;61668;45.388;11.784;2023-03-01T01:32:43;21.80;;;8.70;;
68577;SDS011;61668;45.388;11.784;2023-03-01T01:35:08;25.50;;;9.10;;
68577;SDS011;61668;45.388;11.784;2023-03-01T01:37:34;28.30;;;10.60;;
68577;SDS011;61668;45.388;11.784;2023-03-01T01:40:01;24.20;;;8.80;;
68577;SDS011;61668;45.388;11.784;2023-03-01T01:42:29;21.20;;;7.60;;
68577;SDS011;61668;45.388;11.784;2023-03-01T01:45:28;19.10;;;7.00;;
68577;SDS011;61668;45.388;11.784;2023-03-01T01:48:04;20.20;;;6.60;;
68577;SDS011;61668;45.388;11.784;2023-03-01T01:50:33;16.50;;;6.00;;
68577;SDS011;61668;45.388;11.784;2023-03-01T01:53:19;17.10;;;6.10;;
68577;SDS011;61668;45.388;11.784;2023-03-01T01:55:49;16.80;;;6.60;;
68577;SDS011;61668;45.388;11.784;2023-03-01T01:58:24;18.30;;;5.90;;
68577;SDS011;61668;45.388;11.784;2023-03-01T02:00:53;16.20;;;5.60;;
68577;SDS011;61668;45.388;11.784;2023-03-01T02:03:23;15.60;;;5.50;;
68577;SDS011;61668;45.388;11.784;2023-03-01T02:06:00;18.40;;;6.90;;
68577;SDS011;61668;45.388;11.784;2023-03-01T02:08:31;16.00;;;5.50;;
68577;SDS011;61668;45.388;11.784;2023-03-01T02:11:00;16.10;;;6.40;;
68577;SDS011;61668;45.388;11.784;2023-03-01T02:13:26;15.20;;;5.70;;
68577;SDS011;61668;45.388;11.784;2023-03-01T02:15:53;16.20;;;6.20;;
68577;SDS011;61668;45.388;11.784;2023-03-01T02:18:20;16.60;;;6.00;;
68577;SDS011;61668;45.388;11.784;2023-03-01T02:23:42;19.00;;;5.90;;
68577;SDS011;61668;45.388;11.784;2023-03-01T02:26:33;19.50;;;6.20;;
68577;SDS011;61668;45.388;11.784;2023-03-01T02:29:20;15.60;;;5.30;;
68577;SDS011;61668;45.388;11.784;2023-03-01T02:31:47;16.40;;;5.90;;
68577;SDS011;61668;45.388;11.784;2023-03-01T02:34:24;17.10;;;5.60;;
68577;SDS011;61668;45.388;11.784;2023-03-01T02:36:59;16.30;;;5.50;;
68577;SDS011;61668;45.388;11.784;2023-03-01T02:39:39;16.20;;;5.80;;
68577;SDS011;61668;45.388;11.784;2023-03-01T02:42:11;16.00;;;5.60;;
68577;SDS011;61668;45.388;11.784;2023-03-01T02:44:38;16.20;;;5.20;;
68577;SDS011;61668;45.388;11.784;2023-03-01T02:47:04;17.10;;;5.70;;
68577;SDS011;61668;45.388;11.784;2023-03-01T02:49:33;14.70;;;5.30;;
68577;SDS011;61668;45.388;11.784;2023-03-01T02:57:48;16.00;;;5.40;;
68577;SDS011;61668;45.388;11.784;2023-03-01T03:00:28;16.80;;;5.10;;
68577;SDS011;61668;45.388;11.784;2023-03-01T03:02:58;15.80;;;5.40;;
68577;SDS011;61668;45.388;11.784;2023-03-01T03:05:27;19.10;;;5.50;;
68577;SDS011;61668;45.388;11.784;2023-03-01T03:07:55;14.80;;;5.60;;
68577;SDS011;61668;45.388;11.784;2023-03-01T03:12:58;15.60;;;6.40;;
68577;SDS011;61668;45.388;11.784;2023-03-01T03:15:27;17.00;;;5.30;;
68577;SDS011;61668;45.388;11.784;2023-03-01T03:17:55;17.20;;;4.90;;
68577;SDS011;61668;45.388;11.784;2023-03-01T03:20:24;18.10;;;5.20;;
68577;SDS011;61668;45.388;11.784;2023-03-01T03:22:53;13.70;;;5.00;;
68577;SDS011;61668;45.388;11.784;2023-03-01T03:25:21;16.00;;;5.30;;
68577;SDS011;61668;45.388;11.784;2023-03-01T03:27:49;16.40;;;4.50;;
68577;SDS011;61668;45.388;11.784;2023-03-01T03:30:23;13.50;;;4.40;;
68577;SDS011;61668;45.388;11.784;2023-03-01T03:32:53;16.20;;;5.10;;
68577;SDS011;61668;45.388;11.784;2023-03-01T03:35:25;15.90;;;5.10;;
68577;SDS011;61668;45.388;11.784;2023-03-01T03:37:58;15.90;;;5.40;;
68577;SDS011;61668;45.388;11.784;2023-03-01T03:40:38;14.00;;;4.40;;
68577;SDS011;61668;45.388;11.784;2023-03-01T03:43:07;14.70;;;4.80;;
68577;SDS011;61668;45.388;11.784;2023-03-01T03:45:45;13.70;;;4.10;;
68577;SDS011;61668;45.388;11.784;2023-03-01T03:48:11;17.30;;;5.10;;
68577;SDS011;61668;45.388;11.784;2023-03-01T03:50:38;15.20;;;4.60;;
68577;SDS011;61668;45.388;11.784;2023-03-01T03:53:07;16.80;;;5.60;;
68577;SDS011;61668;45.388;11.784;2023-03-01T03:55:36;14.10;;;4.80;;
68577;SDS011;61668;45.388;11.784;2023-03-01T03:58:05;15.80;;;5.40;;
68577;SDS011;61668;45.388;11.784;2023-03-01T04:00:42;15.60;;;5.50;;
68577;SDS011;61668;45.388;11.784;2023-03-01T04:03:10;16.50;;;4.80;;
68577;SDS011;61668;45.388;11.784;2023-03-01T04:05:37;18.30;;;7.70;;
68577;SDS011;61668;45.388;11.784;2023-03-01T04:08:05;17.20;;;6.40;;
68577;SDS011;61668;45.388;11.784;2023-03-01T04:10:36;16.80;;;5.00;;
68577;SDS011;61668;45.388;11.784;2023-03-01T04:13:10;16.40;;;5.60;;
68577;SDS011;61668;45.388;11.784;2023-03-01T04:15:37;20.10;;;6.80;;
68577;SDS011;61668;45.388;11.784;2023-03-01T04:18:04;24.90;;;8.10;;
68577;SDS011;61668;45.388;11.784;2023-03-01T04:20:32;20.50;;;6.60;;
68577;SDS011;61668;45.388;11.784;2023-03-01T04:23:20;19.40;;;5.70;;
68577;SDS011;61668;45.388;11.784;2023-03-01T04:25:48;18.90;;;6.60;;
68577;SDS011;61668;45.388;11.784;2023-03-01T04:28:20;14.30;;;5.00;;
68577;SDS011;61668;45.388;11.784;2023-03-01T04:30:54;14.80;;;5.20;;
68577;SDS011;61668;45.388;11.784;2023-03-01T04:33:21;16.30;;;5.20;;
68577;SDS011;61668;45.388;11.784;2023-03-01T04:35:48;14.20;;;4.30;;
68577;SDS011;61668;45.388;11.784;2023-03-01T04:38:17;17.90;;;5.40;;
68577;SDS011;61668;45.388;11.784;2023-03-01T04:40:43;18.40;;;5.60;;
68577;SDS011;61668;45.388;11.784;2023-03-01T04:43:10;17.40;;;6.30;;
68577;SDS011;61668;45.388;11.784;2023-03-01T04:45:36;18.40;;;6.40;;
68577;SDS011;61668;45.388;11.784;2023-03-01T04:48:03;19.20;;;6.60;;
68577;SDS011;61668;45.388;11.784;2023-03-01T04:50:29;19.20;;;6.70;;
68577;SDS011;61668;45.388;11.784;2023-03-01T04:52:55;20.00;;;6.90;;
68577;SDS011;61668;45.388;11.784;2023-03-01T04:55:25;18.60;;;7.00;;
68577;SDS011;61668;45.388;11.784;2023-03-01T04:57:51;23.50;;;9.00;;
68577;SDS011;61668;45.388;11.784;2023-03-01T05:00:18;18.90;;;7.20;;
68577;SDS011;61668;45.388;11.784;2023-03-01T05:05:23;19.70;;;7.40;;
68577;SDS011;61668;45.388;11.784;2023-03-01T05:07:59;17.70;;;7.30;;
68577;SDS011;61668;45.388;11.784;2023-03-01T05:10:27;20.80;;;7.20;;
68577;SDS011;61668;45.388;11.784;2023-03-01T05:12:57;20.70;;;8.20;;
68577;SDS011;61668;45.388;11.784;2023-03-01T05:15:24;16.80;;;6.90;;
68577;SDS011;61668;45.388;11.784;2023-03-01T05:17:52;18.50;;;5.50;;
68577;SDS011;61668;45.388;11.784;2023-03-01T05:20:19;15.70;;;5.20;;
68577;SDS011;61668;45.388;11.784;2023-03-01T05:22:48;14.40;;;4.70;;
68577;SDS011;61668;45.388;11.784;2023-03-01T05:25:15;17.80;;;4.80;;
68577;SDS011;61668;45.388;11.784;2023-03-01T05:27:40;13.20;;;4.60;;
68577;SDS011;61668;45.388;11.784;2023-03-01T05:30:06;17.70;;;5.90;;
68577;SDS011;61668;45.388;11.784;2023-03-01T05:32:42;16.50;;;6.10;;
68577;SDS011;61668;45.388;11.784;2023-03-01T05:35:14;16.00;;;5.20;;
68577;SDS011;61668;45.388;11.784;2023-03-01T05:37:42;14.40;;;4.50;;
68577;SDS011;61668;45.388;11.784;2023-03-01T05:40:11;13.50;;;5.00;;
68577;SDS011;61668;45.388;11.784;2023-03-01T05:42:46;16.00;;;5.30;;
68577;SDS011;61668;45.388;11.784;2023-03-01T05:45:14;17.50;;;5.80;;
68577;SDS011;61668;45.388;11.784;2023-03-01T05:47:42;16.60;;;5.30;;
68577;SDS011;61668;45.388;11.784;2023-03-01T05:50:21;16.50;;;6.20;;
68577;SDS011;61668;45.388;11.784;2023-03-01T05:52:58;15.40;;;6.10;;
68577;SDS011;61668;45.388;11.784;2023-03-01T05:55:27;14.50;;;5.70;;
68577;SDS011;61668;45.388;11.784;2023-03-01T05:57:53;14.70;;;5.90;;
68577;SDS011;61668;45.388;11.784;2023-03-01T06:00:20;19.30;;;5.60;;
68577;SDS011;61668;45.388;11.784;2023-03-01T06:02:49;16.00;;;5.80;;
68577;SDS011;61668;45.388;11.784;2023-03-01T06:05:17;17.80;;;5.90;;
68577;SDS011;61668;45.388;11.784;2023-03-01T06:07:43;17.00;;;6.30;;
68577;SDS011;61668;45.388;11.784;2023-03-01T06:10:11;14.50;;;5.20;;
68577;SDS011;61668;45.388;11.784;2023-03-01T06:12:38;15.60;;;5.80;;
68577;SDS011;61668;45.388;11.784;2023-03-01T06:15:06;14.90;;;5.60;;
68577;SDS011;61668;45.388;11.784;2023-03-01T06:17:35;16.20;;;5.50;;
68577;SDS011;61668;45.388;11.784;2023-03-01T06:20:09;16.60;;;5.40;;
68577;SDS011;61668;45.388;11.784;2023-03-01T06:22:40;15.90;;;5.40;;
68577;SDS011;61668;45.388;11.784;2023-03-01T06:25:07;16.00;;;5.30;;
68577;SDS011;61668;45.388;11.784;2023-03-01T06:27:33;15.40;;;5.20;;
68577;SDS011;61668;45.388;11.784;2023-03-01T06:29:58;14.30;;;5.30;;
68577;SDS011;61668;45.388;11.784;2023-03-01T06:32:24;12.70;;;4.40;;
68577;SDS011;61668;45.388;11.784;2023-03-01T06:34:50;13.80;;;4.90;;
68577;SDS011;61668;45.388;11.784;2023-03-01T06:37:15;14.60;;;4.70;;
68577;SDS011;61668;45.388;11.784;2023-03-01T06:39:41;12.20;;;4.40;;
68577;SDS011;61668;45.388;11.784;2023-03-01T06:42:09;16.80;;;5.80;;
68577;SDS011;61668;45.388;11.784;2023-03-01T06:44:36;14.30;;;4.80;;
68577;SDS011;61668;45.388;11.784;2023-03-01T06:47:02;12.10;;;4.00;;
68577;SDS011;61668;45.388;11.784;2023-03-01T06:49:28;13.40;;;4.20;;
68577;SDS011;61668;45.388;11.784;2023-03-01T06:51:54;12.80;;;4.30;;
68577;SDS011;61668;45.388;11.784;2023-03-01T06:54:19;12.60;;;3.90;;
68577;SDS011;61668;45.388;11.784;2023-03-01T06:56:48;15.80;;;6.20;;
68577;SDS011;61668;45.388;11.784;2023-03-01T06:59:14;12.70;;;4.00;;
68577;SDS011;61668;45.388;11.784;2023-03-01T07:01:40;13.00;;;3.60;;
68577;SDS011;61668;45.388;11.784;2023-03-01T07:04:06;15.00;;;5.00;;
68577;SDS011;61668;45.388;11.784;2023-03-01T07:06:32;14.70;;;4.20;;
68577;SDS011;61668;45.388;11.784;2023-03-01T07:08:57;12.60;;;3.20;;
68577;SDS011;61668;45.388;11.784;2023-03-01T07:13:54;14.00;;;4.20;;
68577;SDS011;61668;45.388;11.784;2023-03-01T07:16:21;12.60;;;4.50;;
68577;SDS011;61668;45.388;11.784;2023-03-01T07:18:47;13.40;;;3.90;;
68577;SDS011;61668;45.388;11.784;2023-03-01T07:21:13;15.50;;;5.30;;
68577;SDS011;61668;45.388;11.784;2023-03-01T07:23:40;13.10;;;3.20;;
68577;SDS011;61668;45.388;11.784;2023-03-01T07:26:06;12.60;;;4.10;;
68577;SDS011;61668;45.388;11.784;2023-03-01T07:28:32;10.70;;;3.50;;
68577;SDS011;61668;45.388;11.784;2023-03-01T07:31:04;15.80;;;4.40;;
68577;SDS011;61668;45.388;11.784;2023-03-01T07:33:31;12.80;;;3.40;;
68577;SDS011;61668;45.388;11.784;2023-03-01T07:35:58;15.70;;;4.80;;
68577;SDS011;61668;45.388;11.784;2023-03-01T07:38:26;16.10;;;6.30;;
68577;SDS011;61668;45.388;11.784;2023-03-01T07:40:54;10.10;;;3.40;;
68577;SDS011;61668;45.388;11.784;2023-03-01T07:43:24;14.90;;;4.60;;
68577;SDS011;61668;45.388;11.784;2023-03-01T07:45:49;14.30;;;5.80;;
68577;SDS011;61668;45.388;11.784;2023-03-01T07:48:15;13.10;;;3.50;;
68577;SDS011;61668;45.388;11.784;2023-03-01T07:50:41;15.30;;;3.80;;
68577;SDS011;61668;45.388;11.784;2023-03-01T07:53:09;12.20;;;3.60;;
68577;SDS011;61668;45.388;11.784;2023-03-01T07:55:35;12.90;;;3.30;;
68577;SDS011;61668;45.388;11.784;2023-03-01T07:58:02;15.90;;;5.90;;
68577;SDS011;61668;45.388;11.784;2023-03-01T08:00:28;14.80;;;4.60;;
68577;SDS011;61668;45.388;11.784;2023-03-01T08:02:53;13.40;;;4.50;;
68577;SDS011;61668;45.388;11.784;2023-03-01T08:05:19;12.90;;;3.80;;
68577;SDS011;61668;45.388;11.784;2023-03-01T08:07:47;12.70;;;3.70;;
68577;SDS011;61668;45.388;11.784;2023-03-01T08:10:13;17.10;;;5.30;;
68577;SDS011;61668;45.388;11.784;2023-03-01T08:12:39;12.10;;;3.20;;
68577;SDS011;61668;45.388;11.784;2023-03-01T08:15:05;12.90;;;3.80;;
68577;SDS011;61668;45.388;11.784;2023-03-01T08:17:31;15.20;;;3.20;;
68577;SDS011;61668;45.388;11.784;2023-03-01T08:19:57;13.40;;;4.80;;
68577;SDS011;61668;45.388;11.784;2023-03-01T08:22:23;12.10;;;3.30;;
68577;SDS011;61668;45.388;11.784;2023-03-01T08:24:48;12.40;;;3.40;;
68577;SDS011;61668;45.388;11.784;2023-03-01T08:27:15;11.30;;;3.50;;
68577;SDS011;61668;45.388;11.784;2023-03-01T08:29:41;10.50;;;3.50;;
68577;SDS011;61668;45.388;11.784;2023-03-01T08:32:07;12.40;;;4.00;;
68577;SDS011;61668;45.388;11.784;2023-03-01T08:34:33;11.20;;;3.50;;
68577;SDS011;61668;45.388;11.784;2023-03-01T08:37:01;10.50;;;3.40;;
68577;SDS011;61668;45.388;11.784;2023-03-01T08:39:27;11.90;;;3.90;;
68577;SDS011;61668;45.388;11.784;2023-03-01T08:41:53;13.60;;;3.90;;
68577;SDS011;61668;45.388;11.784;2023-03-01T08:44:19;11.80;;;3.90;;
68577;SDS011;61668;45.388;11.784;2023-03-01T08:46:46;11.10;;;3.50;;
68577;SDS011;61668;45.388;11.784;2023-03-01T08:49:15;13.10;;;3.80;;
68577;SDS011;61668;45.388;11.784;2023-03-01T08:51:43;14.70;;;4.20;;
68577;SDS011;61668;45.388;11.784;2023-03-01T08:54:15;17.00;;;5.90;;
68577;SDS011;61668;45.388;11.784;2023-03-01T08:56:43;16.00;;;4.50;;
68577;SDS011;61668;45.388;11.784;2023-03-01T08:59:14;20.80;;;6.30;;
68577;SDS011;61668;45.388;11.784;2023-03-01T09:01:41;15.70;;;6.00;;
68577;SDS011;61668;45.388;11.784;2023-03-01T09:04:15;19.20;;;4.80;;
68577;SDS011;61668;45.388;11.784;2023-03-01T09:06:41;14.90;;;5.50;;
68577;SDS011;61668;45.388;11.784;2023-03-01T09:09:13;13.20;;;4.50;;
68577;SDS011;61668;45.388;11.784;2023-03-01T09:11:44;13.50;;;3.70;;
68577;SDS011;61668;45.388;11.784;2023-03-01T09:14:12;11.00;;;3.90;;
68577;SDS011;61668;45.388;11.784;2023-03-01T09:16:38;12.60;;;4.60;;
68577;SDS011;61668;45.388;11.784;2023-03-01T09:19:05;12.80;;;3.90;;
68577;SDS011;61668;45.388;11.784;2023-03-01T09:21:31;12.70;;;4.00;;
68577;SDS011;61668;45.388;11.784;2023-03-01T09:23:57;14.40;;;4.40;;
68577;SDS011;61668;45.388;11.784;2023-03-01T09:26:24;11.30;;;3.60;;
68577;SDS011;61668;45.388;11.784;2023-03-01T09:28:52;10.40;;;3.70;;
68577;SDS011;61668;45.388;11.784;2023-03-01T09:31:21;11.30;;;3.00;;
68577;SDS011;61668;45.388;11.784;2023-03-01T09:33:49;10.30;;;3.10;;
68577;SDS011;61668;45.388;11.784;2023-03-01T09:36:19;9.90;;;2.10;;
68577;SDS011;61668;45.388;11.784;2023-03-01T09:38:47;8.10;;;1.80;;
68577;SDS011;61668;45.388;11.784;2023-03-01T09:43:55;7.90;;;2.70;;
68577;SDS011;61668;45.388;11.784;2023-03-01T09:46:45;11.80;;;3.40;;
68577;SDS011;61668;45.388;11.784;2023-03-01T09:49:17;10.20;;;2.20;;
68577;SDS011;61668;45.388;11.784;2023-03-01T09:51:55;8.50;;;1.40;;
68577;SDS011;61668;45.388;11.784;2023-03-01T09:54:21;9.30;;;2.30;;
68577;SDS011;61668;45.388;11.784;2023-03-01T09:56:58;10.00;;;1.60;;
68577;SDS011;61668;45.388;11.784;2023-03-01T09:59:56;10.10;;;1.60;;
68577;SDS011;61668;45.388;11.784;2023-03-01T10:02:49;8.60;;;2.10;;
68577;SDS011;61668;45.388;11.784;2023-03-01T10:05:46;8.10;;;1.60;;
68577;SDS011;61668;45.388;11.784;2023-03-01T10:08:30;8.00;;;1.50;;
68577;SDS011;61668;45.388;11.784;2023-03-01T10:11:03;9.50;;;1.40;;
68577;SDS011;61668;45.388;11.784;2023-03-01T10:13:41;8.40;;;1.90;;
68577;SDS011;61668;45.388;11.784;2023-03-01T10:16:51;9.30;;;1.80;;
68577;SDS011;61668;45.388;11.784;2023-03-01T10:19:30;8.10;;;1.70;;
68577;SDS011;61668;45.388;11.784;2023-03-01T10:22:27;9.50;;;2.90;;
68577;SDS011;61668;45.388;11.784;2023-03-01T10:24:57;20.40;;;6.10;;
68577;SDS011;61668;45.388;11.784;2023-03-01T10:27:26;19.40;;;5.20;;
68577;SDS011;61668;45.388;11.784;2023-03-01T10:30:21;9.50;;;2.40;;
68577;SDS011;61668;45.388;11.784;2023-03-01T10:32:54;9.60;;;2.20;;
68577;SDS011;61668;45.388;11.784;2023-03-01T10:35:23;9.50;;;2.40;;
68577;SDS011;61668;45.388;11.784;2023-03-01T10:38:03;10.80;;;2.80;;
68577;SDS011;61668;45.388;11.784;2023-03-01T10:40:34;9.00;;;2.30;;
68577;SDS011;61668;45.388;11.784;2023-03-01T10:43:04;10.20;;;1.90;;
68577;SDS011;61668;45.388;11.784;2023-03-01T10:48:13;8.90;;;2.30;;
68577;SDS011;61668;45.388;11.784;2023-03-01T10:51:06;8.50;;;1.60;;
68577;SDS011;61668;45.388;11.784;2023-03-01T10:53:38;9.40;;;1.50;;
68577;SDS011;61668;45.388;11.784;2023-03-01T10:56:12;8.90;;;1.80;;
68577;SDS011;61668;45.388;11.784;2023-03-01T10:58:41;11.10;;;1.90;;
68577;SDS011;61668;45.388;11.784;2023-03-01T11:06:36;9.20;;;2.90;;
68577;SDS011;61668;45.388;11.784;2023-03-01T11:09:19;11.80;;;3.00;;
68577;SDS011;61668;45.388;11.784;2023-03-01T11:11:52;11.30;;;2.50;;
68577;SDS011;61668;45.388;11.784;2023-03-01T11:14:28;12.20;;;3.00;;
68577;SDS011;61668;45.388;11.784;2023-03-01T11:17:12;9.90;;;2.70;;
68577;SDS011;61668;45.388;11.784;2023-03-01T11:19:42;10.40;;;2.90;;
68577;SDS011;61668;45.388;11.784;2023-03-01T11:22:17;12.00;;;3.30;;
68577;SDS011;61668;45.388;11.784;2023-03-01T11:24:53;14.90;;;3.00;;
68577;SDS011;61668;45.388;11.784;2023-03-01T11:27:28;12.50;;;3.10;;
68577;SDS011;61668;45.388;11.784;2023-03-01T11:30:04;15.00;;;3.30;;
68577;SDS011;61668;45.388;11.784;2023-03-01T11:36:13;10.50;;;1.80;;
68577;SDS011;61668;45.388;11.784;2023-03-01T11:38:42;11.30;;;2.20;;
68577;SDS011;61668;45.388;11.784;2023-03-01T11:41:17;11.00;;;3.00;;
68577;SDS011;61668;45.388;11.784;2023-03-01T11:43:59;9.40;;;2.40;;
68577;SDS011;61668;45.388;11.784;2023-03-01T11:46:39;11.50;;;2.80;;
68577;SDS011;61668;45.388;11.784;2023-03-01T12:15:31;11.20;;;2.20;;
68577;SDS011;61668;45.388;11.784;2023-03-01T12:21:30;11.10;;;2.40;;
68577;SDS011;61668;45.388;11.784;2023-03-01T12:24:52;11.70;;;1.90;;
68577;SDS011;61668;45.388;11.784;2023-03-01T12:36:22;13.50;;;3.10;;
68577;SDS011;61668;45.388;11.784;2023-03-01T12:54:46;11.40;;;3.30;;
68577;SDS011;61668;45.388;11.784;2023-03-01T12:57:38;13.10;;;2.80;;
68577;SDS011;61668;45.388;11.784;2023-03-01T13:00:28;13.90;;;2.70;;
68577;SDS011;61668;45.388;11.784;2023-03-01T13:03:31;10.60;;;2.40;;
68577;SDS011;61668;45.388;11.784;2023-03-01T13:06:57;10.40;;;2.40;;
68577;SDS011;61668;45.388;11.784;2023-03-01T13:14:58;11.80;;;2.60;;
68577;SDS011;61668;45.388;11.784;2023-03-01T13:17:33;13.30;;;3.00;;
68577;SDS011;61668;45.388;11.784;2023-03-01T13:20:13;12.60;;;3.80;;
68577;SDS011;61668;45.388;11.784;2023-03-01T13:22:42;8.90;;;2.30;;
68577;SDS011;61668;45.388;11.784;2023-03-01T13:25:14;8.20;;;2.30;;
68577;SDS011;61668;45.388;11.784;2023-03-01T13:27:45;12.10;;;3.40;;
68577;SDS011;61668;45.388;11.784;2023-03-01T13:30:39;8.20;;;2.40;;
68577;SDS011;61668;45.388;11.784;2023-03-01T13:35:56;13.60;;;2.70;;
68577;SDS011;61668;45.388;11.784;2023-03-01T13:38:46;12.40;;;2.90;;
68577;SDS011;61668;45.388;11.784;2023-03-01T13:44:12;11.20;;;3.10;;
68577;SDS011;61668;45.388;11.784;2023-03-01T13:46:44;11.20;;;2.50;;
68577;SDS011;61668;45.388;11.784;2023-03-01T13:49:22;12.30;;;3.80;;
68577;SDS011;61668;45.388;11.784;2023-03-01T13:51:52;12.30;;;4.50;;
68577;SDS011;61668;45.388;11.784;2023-03-01T13:54:30;10.60;;;3.50;;
68577;SDS011;61668;45.388;11.784;2023-03-01T13:56:59;11.70;;;3.50;;
68577;SDS011;61668;45.388;11.784;2023-03-01T13:59:26;11.90;;;4.00;;
68577;SDS011;61668;45.388;11.784;2023-03-01T14:01:58;10.50;;;3.00;;
68577;SDS011;61668;45.388;11.784;2023-03-01T14:04:31;9.00;;;2.10;;
68577;SDS011;61668;45.388;11.784;2023-03-01T14:07:19;10.00;;;3.20;;
68577;SDS011;61668;45.388;11.784;2023-03-01T14:09:52;8.80;;;3.60;;
68577;SDS011;61668;45.388;11.784;2023-03-01T14:12:28;10.40;;;2.70;;
68577;SDS011;61668;45.388;11.784;2023-03-01T14:15:05;10.10;;;2.80;;
68577;SDS011;61668;45.388;11.784;2023-03-01T14:20:32;10.60;;;2.30;;
68577;SDS011;61668;45.388;11.784;2023-03-01T14:23:10;9.50;;;2.90;;
68577;SDS011;61668;45.388;11.784;2023-03-01T14:25:38;10.30;;;3.00;;
68577;SDS011;61668;45.388;11.784;2023-03-01T14:28:15;9.20;;;3.00;;
68577;SDS011;61668;45.388;11.784;2023-03-01T14:30:46;8.50;;;2.30;;
68577;SDS011;61668;45.388;11.784;2023-03-01T14:33:20;11.40;;;2.40;;
68577;SDS011;61668;45.388;11.784;2023-03-01T14:36:00;11.00;;;2.60;;
68577;SDS011;61668;45.388;11.784;2023-03-01T14:38:31;9.10;;;2.10;;
68577;SDS011;61668;45.388;11.784;2023-03-01T14:41:02;11.70;;;3.20;;
68577;SDS011;61668;45.388;11.784;2023-03-01T14:43:37;14.10;;;5.40;;
68577;SDS011;61668;45.388;11.784;2023-03-01T14:46:05;12.40;;;4.40;;
68577;SDS011;61668;45.388;11.784;2023-03-01T14:48:31;15.80;;;7.20;;
68577;SDS011;61668;45.388;11.784;2023-03-01T14:50:57;14.50;;;5.90;;
68577;SDS011;61668;45.388;11.784;2023-03-01T14:53:26;10.20;;;3.00;;
68577;SDS011;61668;45.388;11.784;2023-03-01T14:55:56;10.20;;;3.70;;
68577;SDS011;61668;45.388;11.784;2023-03-01T14:58:27;10.60;;;2.90;;
68577;SDS011;61668;45.388;11.784;2023-03-01T15:01:03;13.10;;;4.90;;
68577;SDS011;61668;45.388;11.784;2023-03-01T15:03:41;12.10;;;4.10;;
68577;SDS011;61668;45.388;11.784;2023-03-01T15:06:10;16.40;;;9.60;;
68577;SDS011;61668;45.388;11.784;2023-03-01T15:08:40;13.30;;;4.60;;
68577;SDS011;61668;45.388;11.784;2023-03-01T15:13:40;14.40;;;5.30;;
68577;SDS011;61668;45.388;11.784;2023-03-01T15:16:16;15.30;;;5.30;;
68577;SDS011;61668;45.388;11.784;2023-03-01T15:19:15;10.90;;;3.60;;
68577;SDS011;61668;45.388;11.784;2023-03-01T15:21:44;15.50;;;5.40;;
68577;SDS011;61668;45.388;11.784;2023-03-01T15:27:05;17.00;;;7.50;;
68577;SDS011;61668;45.388;11.784;2023-03-01T15:29:48;11.40;;;3.50;;
68577;SDS011;61668;45.388;11.784;2023-03-01T15:32:34;16.20;;;5.80;;
68577;SDS011;61668;45.388;11.784;2023-03-01T15:38:30;16.50;;;6.40;;
68577;SDS011;61668;45.388;11.784;2023-03-01T15:41:03;24.90;;;10.90;;
68577;SDS011;61668;45.388;11.784;2023-03-01T15:43:42;19.30;;;8.40;;
68577;SDS011;61668;45.388;11.784;2023-03-01T15:46:34;13.50;;;4.10;;
68577;SDS011;61668;45.388;11.784;2023-03-01T15:52:12;18.70;;;7.00;;
68577;SDS011;61668;45.388;11.784;2023-03-01T15:54:44;20.40;;;8.70;;
68577;SDS011;61668;45.388;11.784;2023-03-01T15:57:14;23.90;;;12.30;;
68577;SDS011;61668;45.388;11.784;2023-03-01T15:59:40;11.60;;;4.20;;
68577;SDS011;61668;45.388;11.784;2023-03-01T16:02:11;12.30;;;5.20;;
68577;SDS011;61668;45.388;11.784;2023-03-01T16:04:38;11.50;;;4.40;;
68577;SDS011;61668;45.388;11.784;2023-03-01T16:07:04;8.90;;;3.00;;
68577;SDS011;61668;45.388;11.784;2023-03-01T16:09:30;10.20;;;3.50;;
68577;SDS011;61668;45.388;11.784;2023-03-01T16:11:55;8.20;;;2.60;;
68577;SDS011;61668;45.388;11.784;2023-03-01T16:14:21;11.00;;;2.80;;
68577;SDS011;61668;45.388;11.784;2023-03-01T16:16:47;9.90;;;1.50;;
68577;SDS011;61668;45.388;11.784;2023-03-01T16:19:14;9.30;;;1.70;;
68577;SDS011;61668;45.388;11.784;2023-03-01T16:21:40;9.40;;;2.10;;
68577;SDS011;61668;45.388;11.784;2023-03-01T16:24:08;8.30;;;1.40;;
68577;SDS011;61668;45.388;11.784;2023-03-01T16:26:34;8.90;;;1.40;;
68577;SDS011;61668;45.388;11.784;2023-03-01T16:29:02;9.40;;;2.10;;
68577;SDS011;61668;45.388;11.784;2023-03-01T16:31:28;8.70;;;1.20;;
68577;SDS011;61668;45.388;11.784;2023-03-01T16:33:55;9.00;;;2.50;;
68577;SDS011;61668;45.388;11.784;2023-03-01T16:36:24;9.60;;;2.40;;
68577;SDS011;61668;45.388;11.784;2023-03-01T16:38:51;9.00;;;1.80;;
68577;SDS011;61668;45.388;11.784;2023-03-01T16:41:19;11.00;;;3.50;;